Time;durP1;ratioP1;P1;durP2;ratioP2;P2;SDS_P1;SDS_P2;PMS_P1;PMS_P2;Temp;Humidity;BMP_temperature;BMP_pressure;BME280_temperature;BME280_humidity;BME280_pressure;Samples;Min_cycle;Max_cycle;Signal;HPM_P1;HPM_P2
2023/12/30 00:01:37;;;;;;;16.77;2.42;;;7.20;99.90;;;;;;5051262;28;20509;-60
2023/12/30 00:04:03;;;;;;;9.90;1.98;;;7.20;99.90;;;;;;5052364;28;20048;-60
2023/12/30 00:06:29;;;;;;;11.68;1.98;;;7.20;99.90;;;;;;5046769;28;20050;-60
2023/12/30 00:08:54;;;;;;;8.10;1.40;;;7.20;99.90;;;;;;5047253;28;20472;-60
2023/12/30 00:11:20;;;;;;;13.27;2.50;;;7.20;99.90;;;;;;5050407;28;20035;-60
2023/12/30 00:13:46;;;;;;;9.50;2.25;;;7.20;99.90;;;;;;5064587;28;20437;-60
2023/12/30 00:16:13;;;;;;;13.48;2.85;;;7.20;99.90;;;;;;5033774;28;20039;-60
2023/12/30 00:18:39;;;;;;;8.60;2.35;;;7.20;99.90;;;;;;5046251;28;20036;-60
2023/12/30 00:21:04;;;;;;;11.80;2.95;;;7.20;99.90;;;;;;5047466;28;20421;-60
2023/12/30 00:23:30;;;;;;;9.00;2.00;;;7.20;99.90;;;;;;5051024;28;20040;-60
2023/12/30 00:25:56;;;;;;;15.82;2.65;;;7.20;99.90;;;;;;5033603;28;20091;-60
2023/12/30 00:28:21;;;;;;;11.80;2.00;;;7.20;99.90;;;;;;5034030;28;20620;-59
2023/12/30 00:30:48;;;;;;;12.70;2.38;;;7.20;99.90;;;;;;5030576;28;20067;-61
2023/12/30 00:33:13;;;;;;;10.35;1.90;;;7.20;99.90;;;;;;5050613;28;20028;-60
2023/12/30 00:35:40;;;;;;;9.98;2.15;;;7.20;99.90;;;;;;5051478;28;20036;-60
2023/12/30 00:38:06;;;;;;;9.90;2.15;;;7.20;99.90;;;;;;5043556;28;20112;-60
2023/12/30 00:40:31;;;;;;;16.25;2.58;;;7.20;99.90;;;;;;5048286;28;20105;-60
2023/12/30 00:42:57;;;;;;;10.30;2.17;;;7.30;99.90;;;;;;5053160;28;20052;-59
2023/12/30 00:45:23;;;;;;;16.52;2.20;;;7.20;99.90;;;;;;5029206;28;20047;-60
2023/12/30 00:47:49;;;;;;;10.90;1.80;;;7.20;99.90;;;;;;5043845;28;20090;-61
2023/12/30 00:50:14;;;;;;;10.95;1.65;;;7.20;99.90;;;;;;5041003;28;20525;-60
2023/12/30 00:52:40;;;;;;;9.48;2.10;;;7.20;99.90;;;;;;5024586;28;20044;-61
2023/12/30 00:55:07;;;;;;;10.23;1.67;;;7.20;99.90;;;;;;5045393;28;20040;-61
2023/12/30 00:57:33;;;;;;;12.35;2.25;;;7.20;99.90;;;;;;5029541;28;20047;-60
2023/12/30 00:59:59;;;;;;;9.95;1.67;;;7.20;99.90;;;;;;5030104;28;20139;-60
2023/12/30 01:02:24;;;;;;;9.02;1.90;;;7.20;99.90;;;;;;5047354;28;20124;-61
2023/12/30 01:04:50;;;;;;;11.32;1.80;;;7.20;99.90;;;;;;5046094;28;20448;-61
2023/12/30 01:07:16;;;;;;;13.48;2.78;;;7.20;99.90;;;;;;5048692;28;20044;-60
2023/12/30 01:09:42;;;;;;;11.60;2.20;;;7.20;99.90;;;;;;5050573;28;20404;-61
2023/12/30 01:12:07;;;;;;;8.68;2.47;;;7.20;99.90;;;;;;5044333;28;20032;-61
2023/12/30 01:14:33;;;;;;;10.48;1.88;;;7.20;99.90;;;;;;5062077;28;20540;-59
2023/12/30 01:16:59;;;;;;;15.52;2.60;;;7.20;99.90;;;;;;5047706;28;20076;-60
2023/12/30 01:19:25;;;;;;;17.15;2.50;;;7.20;99.90;;;;;;5049352;28;20094;-60
2023/12/30 01:21:51;;;;;;;13.57;2.03;;;7.20;99.90;;;;;;5049369;28;20041;-60
2023/12/30 01:24:17;;;;;;;11.43;2.08;;;7.20;99.90;;;;;;5045768;28;20033;-61
2023/12/30 01:26:44;;;;;;;13.13;2.35;;;7.20;99.90;;;;;;5052242;28;20071;-61
2023/12/30 01:29:09;;;;;;;11.65;2.38;;;7.20;99.90;;;;;;5050351;28;20036;-61
2023/12/30 01:31:35;;;;;;;17.30;2.50;;;7.20;99.90;;;;;;5047587;28;20532;-61
2023/12/30 01:34:01;;;;;;;11.73;2.28;;;7.20;99.90;;;;;;5051100;28;20072;-61
2023/12/30 01:36:26;;;;;;;18.90;2.45;;;7.20;99.90;;;;;;5050086;28;20036;-61
2023/12/30 01:38:52;;;;;;;13.00;2.10;;;7.20;99.90;;;;;;5044235;28;20521;-61
2023/12/30 01:41:19;;;;;;;10.20;2.53;;;7.20;99.90;;;;;;5048549;28;20036;-61
2023/12/30 01:43:45;;;;;;;16.83;2.58;;;7.20;99.90;;;;;;5046689;28;20051;-61
2023/12/30 01:46:12;;;;;;;11.48;1.75;;;7.30;99.90;;;;;;5043451;28;20040;-61
2023/12/30 01:48:38;;;;;;;20.70;4.22;;;7.30;99.90;;;;;;5028745;28;20041;-61
2023/12/30 01:51:07;;;;;;;11.40;2.03;;;7.30;99.90;;;;;;5046721;28;20044;-61
2023/12/30 01:53:36;;;;;;;10.68;2.08;;;7.30;99.90;;;;;;5062187;28;20028;-61
2023/12/30 01:56:02;;;;;;;8.82;1.60;;;7.30;99.90;;;;;;5055731;28;20135;-59
2023/12/30 01:58:29;;;;;;;12.15;1.92;;;7.30;99.90;;;;;;5034627;28;20471;-61
2023/12/30 02:00:56;;;;;;;11.77;2.13;;;7.30;99.90;;;;;;5035990;28;20052;-61
2023/12/30 02:03:22;;;;;;;16.52;3.42;;;7.30;99.90;;;;;;5044923;28;20413;-61
2023/12/30 02:05:48;;;;;;;12.20;2.92;;;7.40;99.90;;;;;;5046528;28;20053;-61
2023/12/30 02:08:17;;;;;;;14.23;2.08;;;7.40;99.90;;;;;;5055591;28;20135;-61
2023/12/30 02:10:43;;;;;;;15.50;2.60;;;7.40;99.90;;;;;;5024265;28;20474;-61
2023/12/30 02:13:10;;;;;;;12.43;2.75;;;7.40;99.90;;;;;;5042150;28;20076;-61
2023/12/30 02:15:36;;;;;;;9.45;2.03;;;7.40;99.90;;;;;;5046394;28;20028;-60
2023/12/30 02:18:02;;;;;;;15.02;2.30;;;7.40;99.90;;;;;;5015211;28;20493;-61
2023/12/30 02:20:30;;;;;;;16.33;2.70;;;7.40;99.90;;;;;;5049069;28;20046;-61
2023/12/30 02:22:55;;;;;;;17.52;3.13;;;7.50;99.90;;;;;;5048183;28;20036;-61
2023/12/30 02:25:21;;;;;;;13.80;2.85;;;7.50;99.90;;;;;;5030127;28;20523;-61
2023/12/30 02:27:47;;;;;;;12.10;2.25;;;7.50;99.90;;;;;;5045673;28;20067;-61
2023/12/30 02:30:14;;;;;;;14.45;2.80;;;7.50;99.90;;;;;;5045294;28;20426;-59
2023/12/30 02:32:39;;;;;;;13.45;2.75;;;7.50;99.90;;;;;;5011449;28;20041;-60
2023/12/30 02:35:05;;;;;;;10.60;2.30;;;7.50;99.90;;;;;;5047157;28;20531;-61
2023/12/30 02:37:31;;;;;;;9.85;2.10;;;7.60;99.90;;;;;;5044752;28;20039;-61
2023/12/30 02:39:57;;;;;;;16.08;2.97;;;7.50;99.90;;;;;;5039072;28;20068;-61
2023/12/30 02:42:22;;;;;;;18.08;3.65;;;7.50;99.90;;;;;;5043921;28;20474;-61
2023/12/30 02:44:49;;;;;;;12.63;2.20;;;7.50;99.90;;;;;;5009777;28;20127;-60
2023/12/30 02:47:14;;;;;;;14.48;2.72;;;7.50;99.90;;;;;;5042548;28;20132;-61
2023/12/30 02:49:43;;;;;;;14.55;2.65;;;7.50;99.90;;;;;;5046521;28;20464;-60
2023/12/30 02:52:09;;;;;;;12.65;2.67;;;7.50;99.90;;;;;;5047745;28;20494;-61
2023/12/30 02:54:35;;;;;;;13.35;2.13;;;7.50;99.90;;;;;;5046435;28;20043;-60
2023/12/30 02:57:02;;;;;;;10.48;2.33;;;7.50;99.90;;;;;;5043203;28;20044;-61
2023/12/30 02:59:29;;;;;;;10.45;2.42;;;7.50;99.90;;;;;;5048304;28;20586;-60
2023/12/30 03:01:54;;;;;;;16.13;2.78;;;7.50;99.90;;;;;;5044806;28;20417;-61
2023/12/30 03:04:20;;;;;;;11.27;1.80;;;7.50;99.90;;;;;;5045448;28;20119;-61
2023/12/30 03:06:46;;;;;;;11.55;2.00;;;7.50;99.90;;;;;;5042945;28;20047;-61
2023/12/30 03:09:12;;;;;;;11.90;2.15;;;7.50;99.90;;;;;;5028441;28;20053;-61
2023/12/30 03:11:38;;;;;;;16.35;2.53;;;7.50;99.90;;;;;;5050197;28;20064;-61
2023/12/30 03:14:03;;;;;;;10.57;2.00;;;7.50;99.90;;;;;;5047072;28;20513;-61
2023/12/30 03:16:29;;;;;;;15.18;2.60;;;7.50;99.90;;;;;;5044764;28;20041;-60
2023/12/30 03:18:55;;;;;;;13.35;3.08;;;7.50;99.90;;;;;;5044762;28;20033;-61
2023/12/30 03:21:21;;;;;;;14.23;2.88;;;7.50;99.90;;;;;;5047408;28;20525;-61
2023/12/30 03:23:47;;;;;;;19.52;2.60;;;7.50;99.90;;;;;;5062636;28;20490;-60
2023/12/30 03:26:13;;;;;;;17.75;2.95;;;7.60;99.90;;;;;;5043596;28;20626;-60
2023/12/30 03:28:39;;;;;;;17.77;2.30;;;7.60;99.90;;;;;;5046180;28;20039;-59
2023/12/30 03:31:06;;;;;;;14.55;2.53;;;7.60;99.90;;;;;;5044190;28;20048;-60
2023/12/30 03:33:32;;;;;;;14.55;2.28;;;7.70;99.90;;;;;;5032438;28;20036;-60
2023/12/30 03:35:58;;;;;;;19.45;3.72;;;7.60;99.90;;;;;;5048134;28;20645;-60
2023/12/30 03:38:24;;;;;;;14.45;2.40;;;7.60;99.90;;;;;;5014416;28;20040;-61
2023/12/30 03:40:50;;;;;;;12.93;2.67;;;7.60;99.90;;;;;;5040428;28;20036;-61
2023/12/30 03:43:16;;;;;;;12.35;2.40;;;7.60;99.90;;;;;;5047734;28;20051;-60
2023/12/30 03:45:42;;;;;;;16.02;3.05;;;7.60;99.90;;;;;;5033875;28;20511;-61
2023/12/30 03:48:08;;;;;;;28.45;3.90;;;7.60;99.90;;;;;;5050237;28;20047;-61
2023/12/30 03:50:36;;;;;;;16.45;2.78;;;7.50;99.90;;;;;;5058413;28;20128;-61
2023/12/30 03:53:02;;;;;;;18.52;3.00;;;7.50;99.90;;;;;;5051855;28;20119;-61
2023/12/30 03:55:28;;;;;;;15.55;2.78;;;7.50;99.90;;;;;;5051450;28;20029;-61
2023/12/30 03:57:54;;;;;;;15.77;2.67;;;7.50;99.90;;;;;;5020939;28;20106;-61
2023/12/30 04:00:20;;;;;;;19.25;3.35;;;7.50;99.90;;;;;;5029498;28;20090;-61
2023/12/30 04:02:47;;;;;;;10.38;3.05;;;7.50;99.90;;;;;;5032798;28;20048;-61
2023/12/30 04:05:12;;;;;;;18.25;3.13;;;7.50;99.90;;;;;;5049557;28;20120;-60
2023/12/30 04:07:38;;;;;;;19.88;2.92;;;7.60;99.90;;;;;;5047864;28;20135;-61
2023/12/30 04:10:05;;;;;;;13.65;3.33;;;7.60;99.90;;;;;;5049300;28;20044;-61
2023/12/30 04:12:32;;;;;;;19.13;2.55;;;7.60;99.90;;;;;;5045855;28;20505;-61
2023/12/30 04:14:58;;;;;;;19.63;2.95;;;7.60;99.90;;;;;;5066860;28;20082;-60
2023/12/30 04:17:23;;;;;;;12.10;2.95;;;7.60;99.90;;;;;;5049542;28;20040;-60
2023/12/30 04:19:49;;;;;;;16.13;3.90;;;7.70;99.90;;;;;;5046256;28;20036;-60
2023/12/30 04:22:15;;;;;;;12.73;2.83;;;7.60;99.90;;;;;;5062980;28;20036;-61
2023/12/30 04:24:40;;;;;;;15.43;2.58;;;7.60;99.90;;;;;;5049914;28;20033;-60
2023/12/30 04:27:06;;;;;;;24.77;3.55;;;7.60;99.90;;;;;;5038438;28;20489;-61
2023/12/30 04:29:32;;;;;;;14.10;2.70;;;7.60;99.90;;;;;;5042606;28;20427;-61
2023/12/30 04:31:57;;;;;;;17.98;2.83;;;7.60;99.90;;;;;;5028081;28;20041;-60
2023/12/30 04:34:23;;;;;;;16.77;3.38;;;7.60;99.90;;;;;;5048004;28;20401;-61
2023/12/30 04:36:49;;;;;;;20.58;2.88;;;7.60;99.90;;;;;;5036221;28;20416;-60
2023/12/30 04:39:15;;;;;;;14.32;2.75;;;7.60;99.90;;;;;;5032859;28;20411;-61
2023/12/30 04:41:40;;;;;;;12.57;3.47;;;7.60;99.90;;;;;;5045135;28;20485;-61
2023/12/30 04:44:06;;;;;;;15.15;2.63;;;7.60;99.90;;;;;;5044115;28;20429;-61
2023/12/30 04:46:32;;;;;;;14.07;2.90;;;7.60;99.90;;;;;;5043295;28;20452;-61
2023/12/30 04:49:01;;;;;;;12.60;2.60;;;7.60;99.90;;;;;;5031164;28;20078;-61
2023/12/30 04:51:27;;;;;;;12.65;3.05;;;7.60;99.90;;;;;;5043799;28;20047;-61
2023/12/30 04:53:52;;;;;;;13.05;2.67;;;7.60;99.90;;;;;;5031011;28;20425;-60
2023/12/30 04:56:18;;;;;;;14.15;2.40;;;7.50;99.90;;;;;;5044949;28;20425;-61
2023/12/30 04:58:44;;;;;;;13.85;3.00;;;7.50;99.90;;;;;;5050198;28;20094;-61
2023/12/30 05:01:11;;;;;;;18.08;2.50;;;7.50;99.90;;;;;;5049656;28;20530;-61
2023/12/30 05:03:37;;;;;;;12.60;2.78;;;7.50;99.90;;;;;;5046876;28;20143;-61
2023/12/30 05:06:03;;;;;;;14.25;2.65;;;7.50;99.90;;;;;;5061706;28;20567;-61
2023/12/30 05:08:29;;;;;;;17.75;3.25;;;7.50;99.90;;;;;;5045848;28;20108;-61
2023/12/30 05:10:55;;;;;;;16.52;2.80;;;7.50;99.90;;;;;;5046634;28;20131;-61
2023/12/30 05:13:21;;;;;;;15.23;2.60;;;7.50;99.90;;;;;;5031995;28;20119;-61
2023/12/30 05:15:49;;;;;;;14.20;3.30;;;7.50;99.90;;;;;;5044253;28;20352;-61
2023/12/30 05:18:15;;;;;;;11.40;2.40;;;7.50;99.90;;;;;;5027728;28;20131;-61
2023/12/30 05:20:41;;;;;;;16.88;2.83;;;7.50;99.90;;;;;;5047833;28;20098;-61
2023/12/30 05:23:07;;;;;;;17.23;2.33;;;7.50;99.90;;;;;;5045733;28;20048;-61
2023/12/30 05:25:34;;;;;;;15.02;2.60;;;7.60;99.90;;;;;;5044680;28;20049;-61
2023/12/30 05:27:59;;;;;;;13.30;2.63;;;7.60;99.90;;;;;;5062135;28;20098;-63
2023/12/30 05:30:25;;;;;;;14.20;3.15;;;7.60;99.90;;;;;;5048289;28;20051;-62
2023/12/30 05:32:51;;;;;;;13.95;2.92;;;7.60;99.90;;;;;;5034527;28;20443;-62
2023/12/30 05:35:17;;;;;;;15.25;3.55;;;7.60;99.90;;;;;;5062294;28;20139;-63
2023/12/30 05:37:43;;;;;;;14.80;2.70;;;7.60;99.90;;;;;;5045535;28;20044;-62
2023/12/30 05:40:10;;;;;;;12.40;2.95;;;7.60;99.90;;;;;;5052013;28;20094;-62
2023/12/30 05:42:35;;;;;;;13.02;3.08;;;7.60;99.90;;;;;;5039443;28;20432;-62
2023/12/30 05:45:01;;;;;;;16.15;2.63;;;7.60;99.90;;;;;;5050345;28;20040;-62
2023/12/30 05:47:27;;;;;;;11.00;2.30;;;7.60;99.90;;;;;;5044281;28;20063;-62
2023/12/30 05:49:52;;;;;;;16.25;2.42;;;7.60;99.90;;;;;;5035659;28;20682;-62
2023/12/30 05:52:18;;;;;;;14.82;2.40;;;7.60;99.90;;;;;;5062493;28;20036;-62
2023/12/30 05:54:45;;;;;;;18.48;3.45;;;7.60;99.90;;;;;;5049220;28;20376;-62
2023/12/30 05:57:11;;;;;;;14.73;3.17;;;7.60;99.90;;;;;;5054529;28;20041;-63
2023/12/30 05:59:36;;;;;;;18.58;2.63;;;7.60;99.90;;;;;;5049485;28;20041;-62
2023/12/30 06:02:02;;;;;;;14.40;2.33;;;7.60;99.90;;;;;;5050089;28;20044;-62
2023/12/30 06:04:29;;;;;;;16.17;2.30;;;7.60;99.90;;;;;;5027646;28;20094;-62
2023/12/30 06:06:55;;;;;;;12.23;3.33;;;7.60;99.90;;;;;;5061772;28;20041;-62
2023/12/30 06:09:21;;;;;;;11.57;2.22;;;7.60;99.90;;;;;;5048641;28;20037;-62
2023/12/30 06:11:48;;;;;;;13.35;2.33;;;7.60;99.90;;;;;;5039251;28;20518;-62
2023/12/30 06:14:14;;;;;;;18.08;2.58;;;7.60;99.90;;;;;;5046362;28;20041;-62
2023/12/30 06:16:39;;;;;;;15.07;2.47;;;7.60;99.90;;;;;;5045629;28;20406;-62
2023/12/30 06:19:05;;;;;;;11.73;2.58;;;7.60;99.90;;;;;;5015094;28;20430;-62
2023/12/30 06:21:31;;;;;;;9.27;2.45;;;7.60;99.90;;;;;;5029133;28;20066;-62
2023/12/30 06:23:57;;;;;;;13.38;2.28;;;7.60;99.90;;;;;;5048033;28;20048;-62
2023/12/30 06:26:22;;;;;;;14.93;2.35;;;7.70;99.90;;;;;;5044625;28;20094;-62
2023/12/30 06:28:48;;;;;;;19.70;3.60;;;7.70;99.90;;;;;;5044981;28;20083;-62
2023/12/30 06:31:14;;;;;;;11.10;2.40;;;7.60;99.90;;;;;;5039058;28;20039;-63
2023/12/30 06:33:40;;;;;;;14.55;2.42;;;7.70;99.90;;;;;;5048339;28;20032;-62
2023/12/30 06:36:06;;;;;;;14.52;2.83;;;7.60;99.90;;;;;;5063203;28;20095;-62
2023/12/30 06:38:32;;;;;;;16.02;2.63;;;7.60;99.90;;;;;;5029273;28;20127;-63
2023/12/30 06:40:58;;;;;;;10.95;2.50;;;7.60;99.90;;;;;;5011693;28;20135;-62
2023/12/30 06:43:24;;;;;;;14.05;2.85;;;7.60;99.90;;;;;;5015360;28;20063;-62
2023/12/30 06:45:50;;;;;;;13.40;2.47;;;7.60;99.90;;;;;;5051410;28;20041;-62
2023/12/30 06:48:20;;;;;;;18.50;2.80;;;7.60;99.90;;;;;;5062869;28;20048;-62
2023/12/30 06:50:45;;;;;;;16.45;2.60;;;7.60;99.90;;;;;;5043291;28;20041;-62
2023/12/30 06:53:11;;;;;;;12.90;2.30;;;7.60;99.90;;;;;;5047488;28;20422;-62
2023/12/30 06:55:37;;;;;;;12.15;2.42;;;7.60;99.90;;;;;;5048183;28;20051;-62
2023/12/30 06:58:03;;;;;;;11.95;2.40;;;7.50;99.90;;;;;;5046644;28;20098;-62
2023/12/30 07:00:30;;;;;;;17.70;2.67;;;7.50;99.90;;;;;;5045133;28;20079;-61
2023/12/30 07:02:56;;;;;;;16.13;2.50;;;7.50;99.90;;;;;;5027682;28;20086;-62
2023/12/30 07:05:22;;;;;;;12.20;2.15;;;7.50;99.90;;;;;;5061357;28;20076;-62
2023/12/30 07:07:51;;;;;;;20.80;2.88;;;7.40;99.90;;;;;;5024283;28;20062;-63
2023/12/30 07:10:17;;;;;;;13.00;2.33;;;7.40;99.90;;;;;;5042658;28;20278;-62
2023/12/30 07:12:42;;;;;;;15.65;2.60;;;7.40;99.90;;;;;;5047614;28;20400;-62
2023/12/30 07:15:09;;;;;;;18.65;2.75;;;7.40;99.90;;;;;;5046882;28;20055;-62
2023/12/30 07:17:34;;;;;;;18.33;2.40;;;7.40;99.90;;;;;;5049082;28;20121;-62
2023/12/30 07:20:00;;;;;;;12.63;2.72;;;7.40;99.90;;;;;;5040273;28;20480;-62
2023/12/30 07:22:26;;;;;;;10.05;2.20;;;7.40;99.90;;;;;;5031777;28;20149;-63
2023/12/30 07:24:51;;;;;;;13.50;3.05;;;7.30;99.90;;;;;;5032317;28;20056;-63
2023/12/30 07:27:17;;;;;;;17.20;3.30;;;7.40;99.90;;;;;;5049439;28;20401;-63
2023/12/30 07:29:43;;;;;;;10.63;2.13;;;7.30;99.90;;;;;;5029818;28;20045;-62
2023/12/30 07:32:08;;;;;;;9.63;2.35;;;7.40;99.90;;;;;;5046480;28;20394;-62
2023/12/30 07:34:34;;;;;;;11.80;1.85;;;7.40;99.90;;;;;;5050518;28;20135;-63
2023/12/30 07:37:03;;;;;;;11.25;2.40;;;7.40;99.90;;;;;;5024897;28;20574;-63
2023/12/30 07:39:32;;;;;;;16.48;2.58;;;7.40;99.90;;;;;;5047320;28;20098;-63
2023/12/30 07:41:58;;;;;;;13.32;2.70;;;7.50;99.90;;;;;;5042976;28;20053;-63
2023/12/30 07:44:24;;;;;;;14.75;2.58;;;7.50;99.90;;;;;;5049368;28;20040;-63
2023/12/30 07:46:50;;;;;;;16.85;2.80;;;7.50;99.90;;;;;;5050623;28;20059;-62
2023/12/30 07:49:17;;;;;;;14.75;2.35;;;7.50;99.90;;;;;;5064095;28;20093;-62
2023/12/30 07:51:43;;;;;;;19.08;2.88;;;7.40;99.90;;;;;;5030552;28;20398;-62
2023/12/30 07:54:09;;;;;;;19.02;2.85;;;7.40;99.90;;;;;;5028436;28;20065;-63
2023/12/30 07:56:35;;;;;;;19.65;2.58;;;7.40;99.90;;;;;;5033883;28;20043;-62
2023/12/30 07:59:01;;;;;;;17.05;2.45;;;7.40;99.90;;;;;;5065827;28;20044;-62
2023/12/30 08:01:26;;;;;;;14.40;2.60;;;7.40;99.90;;;;;;5046894;28;20124;-63
2023/12/30 08:03:52;;;;;;;12.15;2.58;;;7.40;99.90;;;;;;5044278;28;20048;-63
2023/12/30 08:06:18;;;;;;;11.65;1.83;;;7.30;99.90;;;;;;5036479;28;20087;-63
2023/12/30 08:08:44;;;;;;;11.20;2.40;;;7.30;99.90;;;;;;5048806;28;20037;-63
2023/12/30 08:11:10;;;;;;;18.42;2.60;;;7.30;99.90;;;;;;5046013;28;20134;-63
2023/12/30 08:13:35;;;;;;;12.30;2.45;;;7.30;99.90;;;;;;5031135;28;20048;-63
2023/12/30 08:16:02;;;;;;;9.77;2.63;;;7.30;99.90;;;;;;5026698;28;20107;-63
2023/12/30 08:18:30;;;;;;;16.75;2.90;;;7.30;99.90;;;;;;5041953;28;20050;-64
2023/12/30 08:20:56;;;;;;;17.40;3.08;;;7.20;99.90;;;;;;5032225;28;20044;-64
2023/12/30 08:23:21;;;;;;;21.45;3.55;;;7.20;99.90;;;;;;5032573;28;20683;-63
2023/12/30 08:25:47;;;;;;;17.42;3.33;;;7.20;99.90;;;;;;5035293;28;20045;-64
2023/12/30 08:28:13;;;;;;;14.73;2.47;;;7.20;99.90;;;;;;5047369;28;20393;-64
2023/12/30 08:30:38;;;;;;;9.98;2.03;;;7.10;99.90;;;;;;5066302;28;20103;-63
2023/12/30 08:33:06;;;;;;;15.45;2.53;;;7.20;99.90;;;;;;5043911;28;20326;-63
2023/12/30 08:35:35;;;;;;;15.45;2.53;;;7.20;99.90;;;;;;5027567;28;20036;-64
2023/12/30 08:38:01;;;;;;;14.57;2.58;;;7.20;99.90;;;;;;5053796;28;20044;-64
2023/12/30 08:40:27;;;;;;;16.45;3.20;;;7.20;99.90;;;;;;5051135;28;20051;-63
2023/12/30 08:42:52;;;;;;;15.93;2.90;;;7.20;99.90;;;;;;5043993;28;20675;-64
2023/12/30 08:45:18;;;;;;;13.25;3.15;;;7.20;99.90;;;;;;5046177;28;20043;-63
2023/12/30 08:47:47;;;;;;;11.48;2.08;;;7.20;99.90;;;;;;5045632;28;20346;-64
2023/12/30 08:50:13;;;;;;;16.92;3.42;;;7.20;99.90;;;;;;5046068;28;20322;-63
2023/12/30 08:52:39;;;;;;;12.68;2.30;;;7.30;99.90;;;;;;5059989;28;20039;-64
2023/12/30 08:55:12;;;;;;;13.02;2.65;;;7.20;99.90;;;;;;5051542;28;20036;-64
2023/12/30 08:57:38;;;;;;;15.38;3.60;;;7.30;99.90;;;;;;5046801;28;20039;-64
2023/12/30 09:00:08;;;;;;;13.75;4.13;;;7.30;99.90;;;;;;5047050;28;20051;-63
2023/12/30 09:02:35;;;;;;;24.00;3.35;;;7.30;99.90;;;;;;5042205;28;20033;-64
2023/12/30 09:05:02;;;;;;;15.07;2.75;;;7.30;99.90;;;;;;5045828;28;20505;-63
2023/12/30 09:07:31;;;;;;;16.55;2.53;;;7.30;99.90;;;;;;5046117;28;20098;-63
2023/12/30 09:10:00;;;;;;;14.27;2.38;;;7.30;99.90;;;;;;5034678;28;20045;-64
2023/12/30 09:12:26;;;;;;;9.25;1.98;;;7.30;99.90;;;;;;5050081;28;20524;-64
2023/12/30 09:14:52;;;;;;;14.68;2.75;;;7.30;99.90;;;;;;5035046;28;20040;-63
2023/12/30 09:17:17;;;;;;;16.10;2.22;;;7.30;99.90;;;;;;5049609;28;20044;-64
2023/12/30 09:19:43;;;;;;;11.48;2.45;;;7.30;99.90;;;;;;5045104;28;20032;-63
2023/12/30 09:22:10;;;;;;;10.57;2.33;;;7.40;99.90;;;;;;5052817;28;20301;-64
2023/12/30 09:24:36;;;;;;;17.13;2.58;;;7.40;99.90;;;;;;5051492;28;20052;-64
2023/12/30 09:27:02;;;;;;;19.73;2.42;;;7.40;99.90;;;;;;5033668;28;20055;-63
2023/12/30 09:29:31;;;;;;;15.32;3.13;;;7.50;99.90;;;;;;5035740;28;20044;-63
2023/12/30 09:31:57;;;;;;;10.77;2.53;;;7.50;99.90;;;;;;5034979;28;20044;-63
2023/12/30 09:34:22;;;;;;;13.88;2.08;;;7.60;99.90;;;;;;5049384;28;20052;-63
2023/12/30 09:36:48;;;;;;;23.70;3.83;;;7.60;99.90;;;;;;5066234;28;20135;-63
2023/12/30 09:39:14;;;;;;;18.90;2.67;;;7.60;99.90;;;;;;5049142;28;20063;-64
2023/12/30 09:41:40;;;;;;;19.15;2.72;;;7.60;99.90;;;;;;5068944;28;20120;-64
2023/12/30 09:44:07;;;;;;;13.38;2.38;;;7.70;99.90;;;;;;5047244;28;20048;-63
2023/12/30 09:46:36;;;;;;;14.38;2.13;;;7.70;99.90;;;;;;5048371;28;20485;-64
2023/12/30 09:49:03;;;;;;;12.60;1.75;;;7.70;99.90;;;;;;5065928;28;20044;-64
2023/12/30 09:51:32;;;;;;;12.00;2.00;;;7.80;99.90;;;;;;5065427;28;20512;-63
2023/12/30 09:53:59;;;;;;;11.00;2.03;;;7.80;99.90;;;;;;5046411;28;20438;-65
2023/12/30 09:56:26;;;;;;;12.57;2.28;;;7.90;99.90;;;;;;5048553;28;20117;-63
2023/12/30 09:58:53;;;;;;;14.70;2.63;;;7.90;99.90;;;;;;5047482;28;20040;-63
2023/12/30 10:01:20;;;;;;;16.42;2.08;;;7.90;99.90;;;;;;5044572;28;20044;-63
2023/12/30 10:03:46;;;;;;;13.25;2.20;;;7.90;99.90;;;;;;5035098;28;20048;-63
2023/12/30 10:06:14;;;;;;;10.70;2.92;;;8.00;99.90;;;;;;5067240;28;20557;-64
2023/12/30 10:08:41;;;;;;;14.68;2.80;;;8.00;99.90;;;;;;5033597;28;20028;-63
2023/12/30 10:11:09;;;;;;;15.32;2.15;;;8.10;99.90;;;;;;5048726;28;20509;-63
2023/12/30 10:13:38;;;;;;;11.05;2.55;;;8.10;99.90;;;;;;5045646;28;20045;-63
2023/12/30 10:16:05;;;;;;;10.77;2.25;;;8.10;99.90;;;;;;5052017;28;20040;-63
2023/12/30 10:18:32;;;;;;;10.25;3.22;;;8.20;99.90;;;;;;5067904;28;20075;-63
2023/12/30 10:20:58;;;;;;;13.30;2.10;;;8.20;99.90;;;;;;5034421;28;20052;-63
2023/12/30 10:23:27;;;;;;;12.10;3.00;;;8.30;99.90;;;;;;5062311;28;20047;-64
2023/12/30 10:25:52;;;;;;;14.35;3.97;;;8.30;99.90;;;;;;5045624;28;20189;-64
2023/12/30 10:28:18;;;;;;;13.95;3.75;;;8.30;99.90;;;;;;5042329;28;20049;-64
2023/12/30 10:30:44;;;;;;;14.80;3.00;;;8.30;99.90;;;;;;5028476;28;20336;-63
2023/12/30 10:33:12;;;;;;;14.52;2.75;;;8.40;99.90;;;;;;5047382;28;20043;-63
2023/12/30 10:35:39;;;;;;;17.80;3.75;;;8.40;99.90;;;;;;5045967;28;20452;-64
2023/12/30 10:38:08;;;;;;;9.98;3.05;;;8.50;99.90;;;;;;5043421;28;20401;-63
2023/12/30 10:40:33;;;;;;;16.38;2.35;;;8.50;99.90;;;;;;5046418;28;20045;-64
2023/12/30 10:43:01;;;;;;;14.23;2.33;;;8.50;99.90;;;;;;5045913;28;20639;-64
2023/12/30 10:45:27;;;;;;;10.55;2.10;;;8.50;99.90;;;;;;5046204;28;20565;-65
2023/12/30 10:47:55;;;;;;;13.57;2.28;;;8.50;99.90;;;;;;5047312;28;20135;-64
2023/12/30 10:50:22;;;;;;;15.27;2.65;;;8.50;99.90;;;;;;5033126;28;20055;-64
2023/12/30 10:53:02;;;;;;;11.40;1.88;;;8.50;99.90;;;;;;5045750;28;20566;-64
2023/12/30 10:55:33;;;;;;;11.55;1.92;;;8.50;99.90;;;;;;5048721;28;20421;-63
2023/12/30 10:58:06;;;;;;;9.10;1.67;;;8.60;99.90;;;;;;5035246;28;20478;-64
2023/12/30 11:00:35;;;;;;;7.90;1.47;;;8.60;99.90;;;;;;5046430;28;20548;-64
2023/12/30 11:03:05;;;;;;;10.27;2.10;;;8.60;99.90;;;;;;5052182;28;20047;-63
2023/12/30 11:06:03;;;;;;;11.75;1.90;;;8.60;99.90;;;;;;5055037;28;20049;-64
2023/12/30 11:08:29;;;;;;;13.48;3.47;;;8.80;99.90;;;;;;5034207;28;20127;-63
2023/12/30 11:10:58;;;;;;;8.52;1.70;;;8.70;99.90;;;;;;5053138;28;20045;-63
2023/12/30 11:13:23;;;;;;;10.45;2.03;;;8.70;99.90;;;;;;5053542;28;20074;-64
2023/12/30 11:15:49;;;;;;;10.15;2.58;;;8.80;99.90;;;;;;5053262;28;20584;-63
2023/12/30 11:18:15;;;;;;;12.25;1.80;;;8.80;99.90;;;;;;5034270;28;20148;-64
2023/12/30 11:20:48;;;;;;;13.18;1.85;;;8.90;99.90;;;;;;5052814;28;20041;-64
2023/12/30 11:23:19;;;;;;;14.35;2.40;;;8.90;99.90;;;;;;5034547;28;20233;-64
2023/12/30 11:25:46;;;;;;;7.53;1.65;;;8.90;99.90;;;;;;5067284;28;20040;-64
2023/12/30 11:28:22;;;;;;;13.75;2.35;;;8.90;99.90;;;;;;5047491;28;20039;-64
2023/12/30 11:30:59;;;;;;;8.20;1.70;;;8.90;99.90;;;;;;5050810;28;20068;-64
2023/12/30 11:33:25;;;;;;;11.90;2.33;;;9.00;99.90;;;;;;5031949;28;20045;-64
2023/12/30 11:35:56;;;;;;;11.95;2.60;;;9.00;99.90;;;;;;5061703;28;20036;-64
2023/12/30 11:38:24;;;;;;;8.38;1.90;;;9.00;99.90;;;;;;5050183;28;20117;-63
2023/12/30 11:40:51;;;;;;;7.07;1.98;;;8.90;99.90;;;;;;5051487;28;20131;-64
2023/12/30 11:43:20;;;;;;;14.88;2.20;;;8.90;99.90;;;;;;5053798;28;20042;-63
2023/12/30 11:45:45;;;;;;;15.85;2.08;;;8.80;99.90;;;;;;5048823;28;20136;-63
2023/12/30 11:48:11;;;;;;;9.35;2.17;;;8.70;99.90;;;;;;5045835;28;20480;-63
2023/12/30 11:50:37;;;;;;;8.30;2.25;;;8.70;99.90;;;;;;5054735;28;20040;-64
2023/12/30 11:53:03;;;;;;;9.82;1.63;;;8.70;99.90;;;;;;5032692;28;20718;-64
2023/12/30 11:55:29;;;;;;;9.35;2.03;;;8.60;99.90;;;;;;5041534;28;20127;-63
2023/12/30 11:57:56;;;;;;;8.38;2.13;;;8.60;99.90;;;;;;5041871;28;20211;-63
2023/12/30 12:00:24;;;;;;;9.30;2.00;;;8.60;99.90;;;;;;5059683;28;20444;-63
2023/12/30 12:02:50;;;;;;;10.32;1.73;;;8.60;99.90;;;;;;5053713;28;20421;-63
2023/12/30 12:05:16;;;;;;;12.43;2.42;;;8.60;99.90;;;;;;5052524;28;20254;-63
2023/12/30 12:07:42;;;;;;;12.25;2.70;;;8.60;99.90;;;;;;5032365;28;20070;-63
2023/12/30 12:10:08;;;;;;;11.80;2.50;;;8.60;99.90;;;;;;5047170;28;20110;-63
2023/12/30 12:12:39;;;;;;;10.63;2.60;;;8.60;99.90;;;;;;5052496;28;20029;-64
2023/12/30 12:15:07;;;;;;;14.93;2.10;;;8.60;99.90;;;;;;5049863;28;20075;-63
2023/12/30 12:17:35;;;;;;;7.32;1.67;;;8.60;99.90;;;;;;5039723;28;20401;-64
2023/12/30 12:20:04;;;;;;;9.25;2.40;;;8.70;99.90;;;;;;5045532;28;20557;-64
2023/12/30 12:22:30;;;;;;;12.98;2.35;;;8.70;99.90;;;;;;5031006;28;20072;-63
2023/12/30 12:24:56;;;;;;;12.05;2.42;;;8.70;99.90;;;;;;5063920;28;20521;-64
2023/12/30 12:27:22;;;;;;;10.07;2.10;;;8.70;99.90;;;;;;5067328;28;20401;-63
2023/12/30 12:29:56;;;;;;;10.88;1.77;;;8.70;99.90;;;;;;5033234;28;20038;-64
2023/12/30 12:32:23;;;;;;;14.38;2.15;;;8.70;99.90;;;;;;5048646;28;20052;-63
2023/12/30 12:34:49;;;;;;;16.25;2.15;;;8.70;99.90;;;;;;5047074;28;20041;-63
2023/12/30 12:37:15;;;;;;;10.27;1.63;;;8.80;99.90;;;;;;5047889;28;20119;-64
2023/12/30 12:39:45;;;;;;;11.38;2.80;;;8.70;99.90;;;;;;5051077;28;20040;-64
2023/12/30 12:42:12;;;;;;;9.15;2.75;;;8.80;99.90;;;;;;5049632;28;20032;-63
2023/12/30 12:44:39;;;;;;;16.20;3.67;;;8.80;99.90;;;;;;5049054;28;20528;-63